Time;durP1;ratioP1;P1;durP2;ratioP2;P2;SDS_P1;SDS_P2;PMS_P1;PMS_P2;Temp;Humidity;BMP_temperature;BMP_pressure;BME280_temperature;BME280_humidity;BME280_pressure;Samples;Min_cycle;Max_cycle;Signal;HPM_P1;HPM_P2
2022/11/20 00:00:52;;;;;;;42.27;21.23;;;2.60;94.40;;;;;;5003188;28;20500;-62
2022/11/20 00:03:18;;;;;;;42.17;20.33;;;2.60;94.40;;;;;;5032852;28;21001;-62
2022/11/20 00:05:44;;;;;;;41.50;21.87;;;2.60;94.50;;;;;;5015725;28;20192;-63
2022/11/20 00:08:10;;;;;;;36.10;20.00;;;2.70;94.50;;;;;;5030689;28;20208;-62
2022/11/20 00:10:40;;;;;;;36.87;18.70;;;2.70;94.60;;;;;;5032371;28;20214;-62
2022/11/20 00:13:06;;;;;;;42.63;21.07;;;2.70;94.60;;;;;;4999104;28;20287;-62
2022/11/20 00:15:32;;;;;;;40.60;19.67;;;2.70;94.70;;;;;;5032419;28;20935;-62
2022/11/20 00:17:58;;;;;;;42.93;20.27;;;2.80;94.70;;;;;;4998226;28;20953;-62
2022/11/20 00:20:24;;;;;;;36.47;18.63;;;2.80;94.70;;;;;;5013455;28;20490;-62
2022/11/20 00:22:50;;;;;;;36.90;18.90;;;2.80;94.70;;;;;;5014129;28;20202;-62
2022/11/20 00:25:15;;;;;;;39.03;20.27;;;2.80;94.70;;;;;;5015202;28;20270;-62
2022/11/20 00:27:41;;;;;;;31.90;17.67;;;2.80;94.70;;;;;;5036038;28;20674;-62
2022/11/20 00:30:07;;;;;;;39.37;20.63;;;2.80;94.70;;;;;;5042936;28;20234;-62
2022/11/20 00:32:33;;;;;;;38.43;21.10;;;2.80;94.70;;;;;;5016239;28;20188;-62
2022/11/20 00:34:59;;;;;;;46.30;23.10;;;2.80;94.70;;;;;;5015440;28;20959;-62
2022/11/20 00:37:25;;;;;;;36.47;20.30;;;2.80;94.70;;;;;;5010774;28;20217;-62
2022/11/20 00:39:51;;;;;;;32.93;17.33;;;2.80;94.70;;;;;;5015080;28;20192;-62
2022/11/20 00:42:16;;;;;;;35.47;18.20;;;2.80;94.70;;;;;;5000430;28;20446;-62
2022/11/20 00:44:42;;;;;;;33.00;16.87;;;2.80;94.70;;;;;;5013030;28;20282;-62
2022/11/20 00:47:08;;;;;;;34.63;17.40;;;2.80;94.70;;;;;;5031185;28;20229;-62
2022/11/20 00:49:33;;;;;;;36.00;18.33;;;2.80;94.70;;;;;;5000324;28;20195;-62
2022/11/20 00:51:59;;;;;;;34.40;17.17;;;2.80;94.60;;;;;;5014547;28;20266;-62
2022/11/20 00:54:24;;;;;;;34.43;18.20;;;2.70;94.70;;;;;;4998927;28;20194;-62
2022/11/20 00:56:53;;;;;;;36.07;18.47;;;2.70;94.60;;;;;;5014982;28;20268;-62
2022/11/20 00:59:18;;;;;;;34.40;16.80;;;2.80;94.60;;;;;;4998104;28;20204;-62
2022/11/20 01:01:44;;;;;;;31.67;16.80;;;2.80;94.70;;;;;;4998464;28;20446;-62
2022/11/20 01:04:10;;;;;;;35.20;19.60;;;2.80;94.70;;;;;;5012629;28;20278;-62
2022/11/20 01:06:38;;;;;;;35.30;19.20;;;2.80;94.70;;;;;;5014792;28;20191;-62
2022/11/20 01:09:06;;;;;;;36.50;17.43;;;2.80;94.70;;;;;;5003484;28;20216;-62
2022/11/20 01:11:35;;;;;;;41.10;18.43;;;2.80;94.70;;;;;;5031091;28;20431;-62
2022/11/20 01:14:02;;;;;;;34.03;17.13;;;2.80;94.70;;;;;;5011150;28;20424;-62
2022/11/20 01:16:32;;;;;;;36.83;18.40;;;2.90;94.70;;;;;;4996980;28;20446;-62
2022/11/20 01:19:00;;;;;;;37.93;18.70;;;2.90;94.80;;;;;;5013906;28;20483;-62
2022/11/20 01:21:32;;;;;;;31.13;17.50;;;2.90;94.80;;;;;;5030171;28;20431;-62
2022/11/20 01:23:58;;;;;;;35.60;17.77;;;2.90;94.80;;;;;;5030955;28;20521;-62
2022/11/20 01:26:27;;;;;;;36.17;19.23;;;3.00;94.90;;;;;;4997848;28;20510;-62
2022/11/20 01:28:53;;;;;;;32.43;15.73;;;3.00;94.90;;;;;;5003198;28;20418;-62
2022/11/20 01:31:26;;;;;;;35.30;18.00;;;3.00;94.90;;;;;;5001462;28;20434;-62
2022/11/20 01:33:54;;;;;;;30.27;15.37;;;3.00;94.90;;;;;;5014665;28;20465;-62
2022/11/20 01:36:22;;;;;;;32.40;15.90;;;3.10;94.90;;;;;;5024961;28;20426;-62
2022/11/20 01:38:48;;;;;;;29.10;16.57;;;3.00;94.90;;;;;;5035998;28;20497;-62
2022/11/20 01:43:20;;;;;;;29.47;16.87;;;3.00;94.90;;;;;;5030375;28;20426;-62
2022/11/20 01:44:02;;;;;;;34.93;17.67;;;3.10;94.90;;;;;;5027864;28;20508;-62
2022/11/20 01:46:28;;;;;;;34.80;18.10;;;3.10;94.90;;;;;;5000109;28;20444;-62
2022/11/20 01:49:02;;;;;;;34.87;16.90;;;3.10;95.00;;;;;;5013274;28;20439;-62
2022/11/20 01:52:06;;;;;;;31.73;16.07;;;3.10;95.00;;;;;;5030915;28;20239;-62
2022/11/20 01:54:39;;;;;;;29.13;16.67;;;3.10;94.90;;;;;;4992711;28;20426;-62
2022/11/20 01:57:07;;;;;;;32.57;16.17;;;3.10;95.00;;;;;;5030107;28;20462;-62
2022/11/20 01:59:36;;;;;;;27.27;15.60;;;3.10;95.00;;;;;;5030320;28;20419;-62
2022/11/20 02:02:01;;;;;;;29.83;15.97;;;3.10;95.00;;;;;;5014005;28;20414;-62
2022/11/20 02:04:27;;;;;;;31.33;16.77;;;3.10;95.00;;;;;;5012742;28;20427;-62
2022/11/20 02:07:01;;;;;;;30.37;16.40;;;3.10;95.00;;;;;;4999955;28;20258;-62
2022/11/20 02:09:27;;;;;;;32.63;17.67;;;3.10;95.00;;;;;;5001574;28;20191;-62
2022/11/20 02:11:53;;;;;;;28.27;15.30;;;3.20;95.00;;;;;;5013394;28;20494;-62
2022/11/20 02:14:20;;;;;;;31.20;17.37;;;3.10;95.00;;;;;;5013619;28;20767;-62
2022/11/20 02:16:47;;;;;;;32.80;15.23;;;3.10;95.00;;;;;;5027785;28;20449;-62
2022/11/20 02:19:29;;;;;;;29.20;16.83;;;3.20;95.00;;;;;;5012504;28;20470;-62
2022/11/20 02:22:20;;;;;;;29.20;15.93;;;3.20;95.00;;;;;;5010425;28;20513;-62
2022/11/20 02:24:49;;;;;;;29.20;15.00;;;3.10;95.00;;;;;;5030249;28;20466;-62
2022/11/20 02:27:16;;;;;;;31.10;15.03;;;3.20;95.10;;;;;;5029966;28;20466;-62
2022/11/20 02:29:53;;;;;;;28.70;13.70;;;3.20;95.10;;;;;;5013081;28;20438;-62
2022/11/20 02:32:33;;;;;;;23.33;12.73;;;3.20;95.10;;;;;;5013774;28;20422;-62
2022/11/20 02:35:29;;;;;;;28.33;13.27;;;3.20;95.10;;;;;;5029009;28;20435;-62
2022/11/20 02:37:58;;;;;;;31.20;15.50;;;3.20;95.10;;;;;;5029514;28;20433;-62
2022/11/20 02:40:24;;;;;;;25.23;13.40;;;3.20;95.10;;;;;;5013100;28;20441;-62
2022/11/20 02:42:54;;;;;;;24.87;12.90;;;3.20;95.10;;;;;;5011992;28;20422;-62
2022/11/20 02:45:19;;;;;;;26.13;13.43;;;3.20;95.20;;;;;;5012933;28;20211;-62
2022/11/20 02:47:45;;;;;;;26.97;13.57;;;3.20;95.10;;;;;;4997483;28;20499;-62
2022/11/20 02:50:11;;;;;;;26.67;13.67;;;3.20;95.10;;;;;;5025355;28;20176;-62
2022/11/20 02:52:36;;;;;;;33.30;15.27;;;3.20;95.10;;;;;;5029062;28;20187;-62
2022/11/20 02:55:02;;;;;;;28.27;13.13;;;3.20;95.10;;;;;;5009646;28;20196;-62
2022/11/20 02:57:28;;;;;;;22.30;14.43;;;3.10;95.10;;;;;;5013129;28;20241;-62
2022/11/20 02:59:54;;;;;;;23.67;13.53;;;3.10;95.10;;;;;;5011893;28;20443;-62
2022/11/20 03:02:20;;;;;;;26.37;14.30;;;3.10;95.10;;;;;;5029037;28;20183;-62
2022/11/20 03:04:46;;;;;;;26.40;13.77;;;3.10;95.10;;;;;;4997012;28;20222;-62
2022/11/20 03:07:11;;;;;;;21.67;13.23;;;3.10;95.10;;;;;;5029224;28;20512;-62
2022/11/20 03:09:37;;;;;;;25.30;14.57;;;3.20;95.10;;;;;;5012463;28;20845;-62
2022/11/20 03:12:03;;;;;;;23.13;12.77;;;3.10;95.00;;;;;;5013242;28;20265;-62
2022/11/20 03:14:29;;;;;;;27.17;13.47;;;3.10;95.00;;;;;;5012933;28;20196;-62
2022/11/20 03:16:55;;;;;;;24.80;13.37;;;3.10;95.00;;;;;;5028855;28;20191;-62
2022/11/20 03:19:21;;;;;;;23.37;12.83;;;3.10;95.10;;;;;;5012685;28;20265;-62
2022/11/20 03:21:47;;;;;;;22.57;12.90;;;3.10;95.10;;;;;;5012784;28;20431;-62
2022/11/20 03:24:12;;;;;;;25.13;13.63;;;3.10;95.00;;;;;;5002022;28;20233;-62
2022/11/20 03:26:39;;;;;;;17.90;11.40;;;3.20;95.10;;;;;;5012145;28;20198;-62
2022/11/20 03:29:05;;;;;;;24.07;12.77;;;3.20;95.10;;;;;;5043694;28;20218;-62
2022/11/20 03:31:35;;;;;;;20.93;12.13;;;3.20;95.10;;;;;;5017753;28;20495;-62
2022/11/20 03:34:02;;;;;;;20.43;11.47;;;3.20;95.10;;;;;;5019045;28;20192;-62
2022/11/20 03:36:28;;;;;;;17.30;10.83;;;3.20;95.10;;;;;;4996373;28;20419;-62
2022/11/20 03:38:55;;;;;;;21.17;13.10;;;3.20;95.10;;;;;;5012598;28;20525;-62
2022/11/20 03:41:26;;;;;;;21.80;11.50;;;3.20;95.10;;;;;;5028836;28;20438;-62
2022/11/20 03:43:54;;;;;;;23.83;12.60;;;3.20;95.10;;;;;;5031723;28;20438;-62
2022/11/20 03:46:20;;;;;;;21.43;11.83;;;3.20;95.20;;;;;;5032347;28;20429;-62
2022/11/20 03:48:46;;;;;;;20.97;11.30;;;3.30;95.20;;;;;;5015566;28;20509;-62
2022/11/20 03:51:21;;;;;;;20.70;12.03;;;3.30;95.20;;;;;;5031230;28;20462;-62
2022/11/20 03:53:48;;;;;;;19.27;11.03;;;3.30;95.20;;;;;;5027821;28;20183;-62
2022/11/20 03:56:16;;;;;;;18.77;11.23;;;3.30;95.20;;;;;;5016206;28;20439;-62
2022/11/20 03:58:43;;;;;;;16.47;10.03;;;3.30;95.20;;;;;;5026553;28;20465;-62
2022/11/20 04:01:09;;;;;;;21.23;11.93;;;3.30;95.20;;;;;;5006945;28;20437;-62
2022/11/20 04:03:37;;;;;;;18.70;11.00;;;3.30;95.20;;;;;;5015804;28;20439;-62
2022/11/20 04:06:07;;;;;;;15.37;9.80;;;3.30;95.20;;;;;;5015419;28;20509;-62
2022/11/20 04:08:33;;;;;;;18.70;11.07;;;3.30;95.20;;;;;;5021173;28;20466;-62
2022/11/20 04:11:19;;;;;;;15.47;10.00;;;3.30;95.20;;;;;;5032119;28;20422;-62
2022/11/20 04:13:53;;;;;;;22.93;11.77;;;3.30;95.20;;;;;;5015730;28;20447;-62
2022/11/20 04:16:19;;;;;;;19.13;11.47;;;3.30;95.20;;;;;;5014667;28;20415;-62
2022/11/20 04:18:45;;;;;;;21.27;11.77;;;3.30;95.20;;;;;;5016390;28;20485;-63
2022/11/20 04:21:12;;;;;;;20.20;11.87;;;3.30;95.20;;;;;;4998749;28;20453;-62
2022/11/20 04:23:38;;;;;;;16.63;10.83;;;3.30;95.20;;;;;;5014891;28;20430;-62
2022/11/20 04:26:09;;;;;;;16.00;10.50;;;3.30;95.20;;;;;;5015095;28;20471;-62
2022/11/20 04:28:35;;;;;;;16.60;10.73;;;3.30;95.20;;;;;;5014594;28;20237;-62
2022/11/20 04:31:06;;;;;;;16.40;11.43;;;3.30;95.20;;;;;;5015350;28;20917;-62
2022/11/20 04:33:33;;;;;;;19.53;11.70;;;3.30;95.20;;;;;;5027665;28;20516;-64
2022/11/20 04:36:04;;;;;;;22.20;12.30;;;3.30;95.20;;;;;;5032155;28;20415;-62
2022/11/20 04:38:29;;;;;;;22.03;11.47;;;3.30;95.20;;;;;;5015024;28;20447;-62
2022/11/20 04:41:03;;;;;;;17.73;9.80;;;3.30;95.20;;;;;;5015458;28;20498;-62
2022/11/20 04:43:30;;;;;;;20.63;10.83;;;3.30;95.20;;;;;;5016014;28;20265;-62
2022/11/20 04:45:58;;;;;;;18.77;11.53;;;3.30;95.20;;;;;;5015543;28;20457;-62
2022/11/20 04:48:24;;;;;;;19.30;12.43;;;3.30;95.20;;;;;;5013918;28;20489;-62
2022/11/20 04:50:50;;;;;;;19.27;11.93;;;3.30;95.20;;;;;;5015889;28;20434;-62
2022/11/20 04:53:16;;;;;;;17.80;10.80;;;3.30;95.20;;;;;;5014558;28;20454;-62
2022/11/20 04:55:42;;;;;;;18.97;10.83;;;3.30;95.20;;;;;;5013961;28;20423;-62
2022/11/20 04:58:08;;;;;;;18.03;11.53;;;3.30;95.20;;;;;;4997949;28;20192;-62
2022/11/20 05:00:34;;;;;;;19.30;11.77;;;3.30;95.20;;;;;;5014858;28;20192;-62
2022/11/20 05:02:59;;;;;;;16.43;9.87;;;3.20;95.20;;;;;;5031167;28;20434;-62
2022/11/20 05:05:25;;;;;;;21.33;11.17;;;3.20;95.10;;;;;;4999754;28;20295;-62
2022/11/20 05:07:51;;;;;;;18.97;10.83;;;3.20;95.20;;;;;;4999099;28;20222;-62
2022/11/20 05:10:16;;;;;;;21.93;12.40;;;3.20;95.20;;;;;;5029848;28;20180;-62
2022/11/20 05:12:42;;;;;;;15.20;9.23;;;3.20;95.10;;;;;;5013811;28;20212;-62
2022/11/20 05:15:08;;;;;;;16.87;10.07;;;3.10;95.10;;;;;;5013536;28;20665;-62
2022/11/20 05:17:34;;;;;;;16.23;10.20;;;3.20;95.20;;;;;;4993860;28;20197;-62
2022/11/20 05:19:59;;;;;;;17.93;10.27;;;3.10;95.20;;;;;;5013729;28;20969;-62
2022/11/20 05:22:25;;;;;;;19.57;10.50;;;3.10;95.10;;;;;;4998534;28;20262;-62
2022/11/20 05:24:51;;;;;;;15.47;9.80;;;3.10;95.10;;;;;;5023263;28;20232;-61
2022/11/20 05:27:17;;;;;;;17.83;11.00;;;3.10;95.10;;;;;;5014206;28;20217;-62
2022/11/20 05:29:42;;;;;;;14.53;10.20;;;3.10;95.10;;;;;;5030631;28;20171;-62
2022/11/20 05:32:09;;;;;;;17.60;10.10;;;3.10;95.10;;;;;;4998122;28;20188;-62
2022/11/20 05:34:35;;;;;;;19.00;10.83;;;3.00;95.10;;;;;;5014345;28;20214;-62
2022/11/20 05:37:02;;;;;;;19.93;10.57;;;3.00;95.10;;;;;;5013237;28;20923;-62
2022/11/20 05:39:28;;;;;;;18.53;10.67;;;3.00;95.10;;;;;;5013151;28;20423;-62
2022/11/20 05:44:37;;;;;;;16.80;10.03;;;3.00;95.10;;;;;;5014016;28;20230;-62
2022/11/20 05:47:03;;;;;;;17.67;10.57;;;3.00;95.10;;;;;;4996102;28;20478;-62
2022/11/20 05:49:29;;;;;;;15.43;9.83;;;3.00;95.10;;;;;;4996388;28;20888;-62
2022/11/20 05:51:54;;;;;;;14.53;9.50;;;3.00;95.10;;;;;;5013505;28;20196;-62
2022/11/20 05:54:20;;;;;;;18.53;10.23;;;2.90;95.10;;;;;;5014485;28;20204;-69
2022/11/20 05:56:45;;;;;;;15.43;10.17;;;2.90;95.20;;;;;;4997498;28;20188;-62
2022/11/20 05:59:11;;;;;;;16.80;10.73;;;3.00;95.20;;;;;;4996570;28;20199;-62
2022/11/20 06:01:37;;;;;;;18.53;10.27;;;3.00;95.20;;;;;;5038373;28;20183;-62
2022/11/20 06:04:02;;;;;;;19.07;10.40;;;3.00;95.30;;;;;;5012951;28;20195;-62
2022/11/20 06:06:31;;;;;;;17.37;10.63;;;3.10;95.30;;;;;;5013609;28;20187;-63
2022/11/20 06:08:58;;;;;;;15.53;10.13;;;3.10;95.40;;;;;;5004715;28;20303;-62
2022/11/20 06:11:24;;;;;;;18.50;10.87;;;3.20;95.40;;;;;;5029646;28;20452;-62
2022/11/20 06:13:50;;;;;;;17.03;10.50;;;3.20;95.40;;;;;;5012566;28;20427;-62
2022/11/20 06:16:19;;;;;;;14.63;10.27;;;3.20;95.40;;;;;;5028713;28;20430;-62
2022/11/20 06:18:45;;;;;;;14.17;9.13;;;3.20;95.30;;;;;;5036604;28;20247;-63
2022/11/20 06:21:14;;;;;;;15.33;10.40;;;3.20;95.30;;;;;;4996483;28;20419;-62
2022/11/20 06:23:40;;;;;;;15.80;10.47;;;3.20;95.30;;;;;;5008434;28;21016;-62
2022/11/20 06:26:12;;;;;;;18.47;10.27;;;3.20;95.30;;;;;;5011174;28;20418;-61
2022/11/20 06:28:38;;;;;;;19.77;11.20;;;3.30;95.30;;;;;;5012934;28;20466;-60
2022/11/20 06:31:05;;;;;;;17.30;10.80;;;3.30;95.30;;;;;;5005459;28;20449;-61
2022/11/20 06:33:31;;;;;;;15.83;9.80;;;3.30;95.30;;;;;;5013329;28;20426;-60
2022/11/20 06:35:58;;;;;;;14.93;9.77;;;3.30;95.30;;;;;;3884430;28;22043;-66
2022/11/20 06:38:28;;;;;;;19.53;11.23;;;3.30;95.30;;;;;;3596372;28;21011;-60
2022/11/20 06:40:54;;;;;;;16.23;9.90;;;3.30;95.30;;;;;;4655947;28;20467;-61
2022/11/20 06:43:20;;;;;;;15.83;10.33;;;3.30;95.30;;;;;;5029586;28;20418;-61
2022/11/20 06:45:46;;;;;;;19.07;11.27;;;3.30;95.30;;;;;;5029687;28;20427;-61
2022/11/20 06:48:12;;;;;;;21.07;12.07;;;3.30;95.30;;;;;;5012771;28;20504;-61
2022/11/20 06:50:38;;;;;;;20.73;10.30;;;3.30;95.30;;;;;;5012419;28;20219;-62
2022/11/20 06:53:04;;;;;;;21.37;11.90;;;3.30;95.30;;;;;;4998176;28;20408;-62
2022/11/20 06:55:31;;;;;;;18.90;11.63;;;3.40;95.30;;;;;;5011947;28;20242;-61
2022/11/20 06:57:57;;;;;;;14.87;9.67;;;3.40;95.30;;;;;;4995882;28;20474;-61
2022/11/20 07:00:23;;;;;;;17.23;10.73;;;3.50;95.40;;;;;;5012523;28;20469;-61
2022/11/20 07:02:49;;;;;;;17.10;10.87;;;3.50;95.40;;;;;;5028595;28;20451;-61
2022/11/20 07:05:15;;;;;;;20.47;11.60;;;3.50;95.40;;;;;;5012571;28;20250;-61
2022/11/20 07:07:41;;;;;;;15.37;9.77;;;3.50;95.40;;;;;;5012715;28;20860;-62
2022/11/20 07:10:07;;;;;;;17.00;11.07;;;3.60;95.40;;;;;;5032244;28;20597;-62
2022/11/20 07:12:33;;;;;;;18.67;11.93;;;3.60;95.40;;;;;;5012482;28;20186;-62
2022/11/20 07:14:58;;;;;;;16.53;11.07;;;3.60;95.50;;;;;;5002773;28;20419;-61
2022/11/20 07:17:24;;;;;;;17.13;10.43;;;3.70;95.50;;;;;;4995088;28;20198;-61
2022/11/20 07:19:50;;;;;;;20.17;11.97;;;3.70;95.50;;;;;;5014781;28;20230;-61
2022/11/20 07:22:15;;;;;;;16.87;10.87;;;3.70;95.50;;;;;;4996898;28;20210;-61
2022/11/20 07:24:41;;;;;;;15.87;10.37;;;3.80;95.50;;;;;;5038938;28;20581;-61
2022/11/20 07:27:07;;;;;;;15.20;11.10;;;3.80;95.50;;;;;;5016082;28;21077;-63
2022/11/20 07:29:32;;;;;;;16.77;10.87;;;3.80;95.50;;;;;;5016468;28;20211;-63
2022/11/20 07:31:58;;;;;;;17.07;10.67;;;3.80;95.40;;;;;;5017460;28;20194;-62
2022/11/20 07:34:24;;;;;;;16.87;11.17;;;3.90;95.50;;;;;;4999405;28;20210;-62
2022/11/20 07:36:49;;;;;;;20.23;12.40;;;3.90;95.50;;;;;;4999844;28;20206;-62
2022/11/20 07:39:15;;;;;;;20.07;11.77;;;4.00;95.50;;;;;;5003766;28;20185;-62
2022/11/20 07:41:41;;;;;;;19.83;11.53;;;4.00;95.60;;;;;;5000341;28;20221;-62
2022/11/20 07:44:06;;;;;;;18.80;11.93;;;4.00;95.50;;;;;;5016646;28;20184;-63
2022/11/20 07:46:32;;;;;;;18.37;11.67;;;4.10;95.50;;;;;;5014336;28;20199;-62
2022/11/20 07:48:58;;;;;;;18.87;12.20;;;4.10;95.50;;;;;;4999478;28;20218;-63
2022/11/20 07:51:23;;;;;;;15.43;10.37;;;4.20;95.50;;;;;;4999794;28;20546;-63
2022/11/20 07:53:53;;;;;;;18.87;12.03;;;4.20;95.50;;;;;;5006284;28;20207;-63
2022/11/20 07:56:18;;;;;;;18.30;12.17;;;4.30;95.50;;;;;;5013382;28;20219;-63
2022/11/20 07:58:44;;;;;;;17.80;11.40;;;4.30;95.50;;;;;;4998611;28;20447;-63
2022/11/20 08:01:10;;;;;;;19.63;12.80;;;4.30;95.50;;;;;;4999598;28;20214;-63
2022/11/20 08:03:37;;;;;;;20.50;12.37;;;4.30;95.50;;;;;;4995874;28;20223;-63
2022/11/20 08:06:03;;;;;;;17.33;11.17;;;4.30;95.50;;;;;;5013090;28;20197;-63
2022/11/20 08:08:29;;;;;;;19.93;12.30;;;4.30;95.50;;;;;;4999202;28;20616;-63
2022/11/20 08:14:11;;;;;;;17.30;12.10;;;4.30;95.50;;;;;;5003535;28;20195;-63
2022/11/20 08:16:27;;;;;;;13.93;10.73;;;4.40;95.40;;;;;;5014854;28;20472;-63
2022/11/20 08:18:53;;;;;;;19.43;12.47;;;4.10;94.80;;;;;;4998267;28;20474;-63
2022/11/20 08:21:19;;;;;;;18.17;11.97;;;4.20;94.80;;;;;;4999684;28;20429;-63
2022/11/20 08:23:45;;;;;;;17.63;11.37;;;4.20;94.90;;;;;;5015530;28;20190;-62
2022/11/20 08:26:10;;;;;;;17.30;11.40;;;4.20;94.90;;;;;;5015045;28;20217;-63
2022/11/20 08:28:36;;;;;;;19.73;12.33;;;4.30;94.90;;;;;;5014376;28;20207;-63
2022/11/20 08:31:03;;;;;;;17.27;10.77;;;4.30;94.90;;;;;;5014742;28;20192;-66
2022/11/20 08:33:29;;;;;;;16.63;11.37;;;4.30;94.90;;;;;;4998985;28;20434;-62
2022/11/20 08:36:00;;;;;;;14.73;10.40;;;4.30;95.00;;;;;;5014531;28;20438;-63
2022/11/20 08:38:25;;;;;;;16.57;11.77;;;4.30;95.00;;;;;;5029547;28;20422;-62
2022/11/20 08:43:35;;;;;;;19.03;13.33;;;4.30;95.00;;;;;;5013087;28;20198;-61
2022/11/20 08:46:01;;;;;;;17.33;12.23;;;4.30;94.80;;;;;;5014232;28;20423;-62
2022/11/20 08:48:26;;;;;;;16.43;12.07;;;4.30;94.80;;;;;;4994728;28;20243;-62
2022/11/20 08:50:52;;;;;;;18.70;12.63;;;4.30;94.80;;;;;;5013353;28;20192;-63
2022/11/20 08:53:18;;;;;;;20.37;13.10;;;4.40;94.90;;;;;;5005412;28;20196;-61
2022/11/20 08:55:43;;;;;;;30.23;19.67;;;4.40;95.00;;;;;;5028574;28;20282;-61
2022/11/20 08:58:09;;;;;;;31.03;22.00;;;4.50;95.00;;;;;;5012991;28;20183;-63
2022/11/20 09:00:35;;;;;;;26.90;19.10;;;4.60;95.10;;;;;;5014938;28;20207;-64
2022/11/20 09:03:01;;;;;;;34.30;16.90;;;4.60;95.10;;;;;;5016946;28;20196;-63
2022/11/20 09:05:27;;;;;;;19.27;13.30;;;4.70;95.20;;;;;;5013963;28;20805;-63
2022/11/20 09:07:56;;;;;;;18.53;12.13;;;4.70;95.20;;;;;;5017323;28;20212;-64
2022/11/20 09:10:22;;;;;;;18.97;12.67;;;4.80;95.20;;;;;;5027274;28;20846;-63
2022/11/20 09:12:52;;;;;;;15.30;11.57;;;4.80;95.20;;;;;;4996076;28;20424;-63
2022/11/20 09:15:18;;;;;;;15.87;11.70;;;4.80;95.00;;;;;;5031194;28;20188;-63
2022/11/20 09:17:55;;;;;;;17.73;11.67;;;4.80;94.90;;;;;;5015824;28;20426;-63
2022/11/20 09:20:21;;;;;;;17.90;12.47;;;4.80;95.00;;;;;;5007974;28;20476;-63
2022/11/20 09:22:47;;;;;;;17.10;11.87;;;4.80;95.00;;;;;;5030747;28;20445;-62
2022/11/20 09:25:12;;;;;;;16.03;11.07;;;4.80;94.90;;;;;;4998722;28;20529;-62
2022/11/20 09:27:38;;;;;;;15.37;11.67;;;4.80;94.80;;;;;;5013994;28;20327;-63
2022/11/20 09:30:05;;;;;;;19.17;12.30;;;4.80;94.80;;;;;;5031139;28;20187;-63
2022/11/20 09:32:30;;;;;;;19.47;13.00;;;4.90;94.90;;;;;;5007509;28;20279;-66
2022/11/20 09:34:56;;;;;;;20.40;14.90;;;4.90;94.90;;;;;;5026739;28;20537;-64
2022/11/20 09:37:22;;;;;;;20.40;15.63;;;4.90;94.90;;;;;;5013177;28;20198;-65
2022/11/20 09:39:47;;;;;;;18.37;13.50;;;5.00;95.00;;;;;;4997208;28;20210;-65
2022/11/20 09:42:27;;;;;;;19.17;13.97;;;5.00;95.00;;;;;;5013898;28;20199;-65
2022/11/20 09:45:09;;;;;;;16.03;11.80;;;5.00;95.10;;;;;;5014467;28;20202;-65
2022/11/20 09:47:58;;;;;;;14.57;11.30;;;5.10;95.10;;;;;;5031219;28;20807;-67
2022/11/20 09:50:51;;;;;;;16.60;11.03;;;5.20;95.10;;;;;;5019766;28;20493;-66
2022/11/20 09:53:25;;;;;;;17.37;11.83;;;5.30;95.20;;;;;;5013584;28;20461;-65
2022/11/20 09:55:51;;;;;;;18.30;11.33;;;5.30;95.10;;;;;;5013883;28;20455;-66
2022/11/20 09:58:39;;;;;;;13.77;10.53;;;5.40;95.10;;;;;;5013256;28;20510;-66
2022/11/20 10:01:29;;;;;;;14.87;11.03;;;5.50;95.20;;;;;;5012644;28;20270;-65
2022/11/20 10:03:54;;;;;;;16.30;11.53;;;5.60;95.10;;;;;;5010378;28;20519;-68
2022/11/20 10:06:53;;;;;;;16.03;11.47;;;5.60;95.10;;;;;;5030083;28;20430;-66
2022/11/20 10:09:32;;;;;;;14.23;10.50;;;5.60;94.80;;;;;;4999518;28;20686;-67
2022/11/20 10:12:10;;;;;;;17.20;12.13;;;5.70;94.80;;;;;;5026966;28;20770;-67
2022/11/20 10:15:17;;;;;;;16.27;10.97;;;5.80;94.70;;;;;;5008271;28;20438;-68
2022/11/20 10:18:07;;;;;;;13.33;10.47;;;5.90;94.90;;;;;;5010073;28;20436;-67
2022/11/20 10:20:41;;;;;;;13.80;10.07;;;5.80;94.20;;;;;;5028028;28;20500;-68
2022/11/20 10:23:36;;;;;;;14.13;9.80;;;5.90;94.30;;;;;;5030376;28;20430;-67
2022/11/20 10:26:14;;;;;;;15.43;10.80;;;6.10;94.50;;;;;;5028751;28;20438;-68
2022/11/20 10:28:50;;;;;;;15.47;10.07;;;6.00;94.00;;;;;;5011514;28;20470;-68
2022/11/20 10:31:34;;;;;;;13.97;10.57;;;6.20;94.20;;;;;;4664006;28;21684;-68
2022/11/20 10:34:06;;;;;;;14.57;10.77;;;6.20;94.30;;;;;;4406856;28;20438;-68
2022/11/20 10:36:46;;;;;;;12.50;10.10;;;6.30;94.00;;;;;;5014254;28;20429;-67
2022/11/20 10:39:34;;;;;;;11.43;9.60;;;6.30;94.10;;;;;;5029123;28;20538;-67
2022/11/20 10:42:00;;;;;;;13.13;10.27;;;6.40;94.30;;;;;;5014553;28;20509;-66
2022/11/20 10:47:18;;;;;;;11.90;9.67;;;6.50;93.60;;;;;;5013559;28;20477;-66
2022/11/20 10:49:48;;;;;;;12.37;9.40;;;6.60;93.60;;;;;;5012166;28;20434;-66
2022/11/20 10:52:39;;;;;;;14.23;10.50;;;6.80;94.00;;;;;;5031690;28;20438;-66
2022/11/20 10:55:19;;;;;;;12.97;9.80;;;7.00;94.30;;;;;;5013511;28;20431;-66
2022/11/20 10:57:45;;;;;;;12.17;8.93;;;7.00;94.00;;;;;;5029122;28;20500;-66
2022/11/20 11:00:13;;;;;;;10.17;8.40;;;7.10;93.50;;;;;;5028844;28;20458;-66
2022/11/20 11:02:44;;;;;;;12.03;9.33;;;7.10;93.30;;;;;;5029345;28;20195;-67
2022/11/20 11:05:30;;;;;;;11.43;8.73;;;7.10;92.30;;;;;;5028803;28;20445;-67
2022/11/20 11:07:58;;;;;;;10.50;8.60;;;7.00;89.10;;;;;;5026033;28;20474;-67
2022/11/20 11:10:43;;;;;;;11.67;8.80;;;6.90;88.10;;;;;;5001415;28;20467;-78
2022/11/20 11:13:23;;;;;;;10.57;8.73;;;7.10;90.20;;;;;;5021257;28;20937;-77
2022/11/20 11:15:49;;;;;;;11.73;9.47;;;7.10;89.40;;;;;;5029054;28;20426;-77
2022/11/20 11:18:29;;;;;;;10.33;7.80;;;7.10;87.40;;;;;;4996557;28;20455;-77
2022/11/20 11:20:57;;;;;;;10.60;8.53;;;7.20;89.80;;;;;;5012882;28;20211;-66
2022/11/20 11:23:40;;;;;;;12.03;9.37;;;7.20;88.60;;;;;;5044286;28;20932;-66
2022/11/20 11:26:18;;;;;;;14.33;10.10;;;7.20;88.10;;;;;;5017214;28;20446;-67
2022/11/20 11:28:57;;;;;;;12.13;9.73;;;7.30;89.50;;;;;;5028789;28;20470;-70
2022/11/20 11:31:24;;;;;;;11.03;8.37;;;7.40;88.90;;;;;;5028373;28;20466;-67
2022/11/20 11:33:50;;;;;;;10.90;8.20;;;7.40;87.80;;;;;;5012615;28;20518;-67
2022/11/20 11:36:24;;;;;;;10.43;8.67;;;7.50;89.40;;;;;;4995888;28;20565;-66
2022/11/20 11:38:53;;;;;;;12.63;9.60;;;7.50;87.90;;;;;;5006944;28;20196;-66
2022/11/20 11:41:23;;;;;;;10.20;8.20;;;7.40;87.80;;;;;;5005787;28;20485;-66
2022/11/20 11:46:55;;;;;;;11.70;8.97;;;7.30;86.50;;;;;;5010774;28;20489;-67
2022/11/20 11:49:21;;;;;;;14.67;10.33;;;7.40;89.30;;;;;;5012000;28;20440;-67
2022/11/20 11:52:04;;;;;;;12.67;10.13;;;7.40;89.20;;;;;;5011568;28;20465;-66
2022/11/20 11:54:56;;;;;;;14.90;11.37;;;7.50;90.00;;;;;;5008264;28;20184;-67
2022/11/20 11:57:52;;;;;;;15.93;10.60;;;7.50;89.20;;;;;;5032942;28;20497;-67
2022/11/20 12:00:20;;;;;;;12.60;9.70;;;7.60;87.50;;;;;;5013805;28;20430;-67
2022/11/20 12:02:46;;;;;;;13.63;9.87;;;7.70;86.70;;;;;;5012538;28;20457;-74
2022/11/20 12:05:43;;;;;;;17.63;11.60;;;7.70;88.20;;;;;;5008836;28;20441;-69
2022/11/20 12:08:24;;;;;;;14.23;9.17;;;7.70;88.50;;;;;;5015567;28;20509;-72
2022/11/20 12:11:01;;;;;;;10.00;8.07;;;7.70;86.50;;;;;;5016584;28;20430;-71
2022/11/20 12:14:03;;;;;;;14.47;9.17;;;7.80;86.90;;;;;;5016680;28;20512;-72
2022/11/20 12:16:34;;;;;;;10.53;7.80;;;7.90;88.60;;;;;;4920081;28;20433;-67
2022/11/20 12:19:00;;;;;;;9.23;7.17;;;7.90;86.90;;;;;;5015656;28;20486;-67
2022/11/20 12:21:42;;;;;;;7.87;6.53;;;8.00;88.50;;;;;;5033342;28;20450;-71
2022/11/20 12:24:20;;;;;;;6.77;5.77;;;8.10;87.90;;;;;;5032517;28;20202;-65
2022/11/20 12:27:00;;;;;;;6.23;4.90;;;8.20;89.20;;;;;;5020629;28;20517;-67
2022/11/20 12:30:00;;;;;;;6.20;4.90;;;8.20;86.20;;;;;;5015677;28;20451;-70
2022/11/20 12:32:35;;;;;;;6.63;4.23;;;8.30;86.70;;;;;;5016322;28;20461;-63
2022/11/20 12:35:09;;;;;;;7.77;6.07;;;8.30;82.50;;;;;;5031968;28;20458;-65
2022/11/20 12:37:47;;;;;;;6.63;5.13;;;8.20;83.00;;;;;;5031243;28;20422;-66
2022/11/20 12:40:50;;;;;;;9.37;5.40;;;8.30;85.90;;;;;;4835391;28;21907;-66
2022/11/20 12:46:43;;;;;;;8.90;5.60;;;8.40;85.70;;;;;;5012431;28;20492;-65
2022/11/20 12:49:18;;;;;;;6.63;4.67;;;8.50;85.50;;;;;;5007936;28;20759;-65
2022/11/20 12:52:16;;;;;;;6.10;4.63;;;8.50;82.90;;;;;;5023418;28;20434;-67
2022/11/20 12:54:48;;;;;;;10.07;5.80;;;8.60;81.90;;;;;;4892409;28;20937;-66
2022/11/20 12:57:45;;;;;;;6.63;5.37;;;8.70;82.70;;;;;;5020673;28;20491;-67
2022/11/20 13:00:22;;;;;;;6.10;4.90;;;8.80;84.50;;;;;;5022019;28;20768;-65
2022/11/20 13:02:57;;;;;;;6.17;4.70;;;9.10;83.00;;;;;;4809418;28;20450;-66
2022/11/20 13:05:51;;;;;;;6.20;4.87;;;9.10;80.60;;;;;;5013223;28;20311;-64
2022/11/20 13:08:34;;;;;;;6.63;4.30;;;9.30;83.00;;;;;;5011069;28;20471;-65
2022/11/20 13:11:18;;;;;;;5.23;3.40;;;9.50;83.00;;;;;;4989920;28;20192;-66
2022/11/20 13:14:08;;;;;;;5.50;3.47;;;9.40;76.50;;;;;;5023619;28;20180;-65